^^
Station Historical Data
Daily Summary for February 5, 2017 Units:  Metric    English   Both
« Previous Day
Next Day »
Daily Weekly Monthly Yearly Custom
  High: Low: Average:
Temperature: 31.4 °C 13.1 °C 20.8 °C
Dew Point: 7.5 °C 6.3 °C 6.9 °C
Humidity: 65% 21% 44%
Wind Speed: 22.7km/h 0km/h 13.7km/h
Wind Gust: 27.4km/h - -
Wind- - SW
Pressure: 1011.4 hPa 1007.7 hPa -
Precipitation: 0 mm    
Historical Graphs
 
 
Tabular Data for February 5, 2017
Time Temperature Dew Point Pressure Wind Wind Speed Wind Gust Humidity Rainfall Rate (Hourly) solar Conditions
03:32 13.9 °C 6.3 °C 1010 hPa SSW 17.7 km/h 22.5 km/h 60% 0 mm 0.0 W/m2
03:52 13.8 °C 6.4 °C 1010 hPa SSW 19.5 km/h 24.1 km/h 61% 0 mm 0.0 W/m2
04:08 13.8 °C 6.4 °C 1010 hPa SSW 14.3 km/h 20.9 km/h 61% 0 mm 0.0 W/m2
04:11 13.8 °C 6.4 °C 1010 hPa SSW 17.7 km/h 17.7 km/h 61% 0 mm 0.0 W/m2
04:16 13.8 °C 6.4 °C 1010 hPa South 16.3 km/h 17.7 km/h 61% 0 mm 0.0 W/m2
05:12 13.6 °C 6.5 °C 1010 hPa SSW 14.3 km/h 16.1 km/h 62% 0 mm 0.0 W/m2
06:13 13.1 °C 6.4 °C 1010.7 hPa SW 17.7 km/h 19.3 km/h 64% 0 mm 0.0 W/m2
06:14 13.1 °C 6.4 °C 1010.4 hPa SW 13 km/h 20.9 km/h 64% 0 mm 0.0 W/m2
06:28 13.1 °C 6.7 °C 1010.7 hPa SW 19.5 km/h 24.1 km/h 65% 0 mm 7.0 W/m2
06:38 13.1 °C 6.7 °C 1010.7 hPa SSW 14.3 km/h 20.9 km/h 65% 0 mm 14.0 W/m2
06:55 13.1 °C 6.7 °C 1010.7 hPa SSW 13 km/h 19.3 km/h 65% 0 mm 21.0 W/m2
07:10 13.3 °C 6.9 °C 1011.1 hPa SW 20.9 km/h 22.5 km/h 65% 0 mm 63.0 W/m2
07:26 13.6 °C 6.9 °C 1011.1 hPa SW 17.7 km/h 19.3 km/h 64% 0 mm 116.0 W/m2
07:33 13.9 °C 7 °C 1011.1 hPa SW 19.5 km/h 20.9 km/h 63% 0 mm 179.0 W/m2
07:55 14.4 °C 7 °C 1011.1 hPa SW 17.7 km/h 20.9 km/h 61% 0 mm 246.0 W/m2
08:10 14.8 °C 6.9 °C 1011.1 hPa SW 13 km/h 19.3 km/h 59% 0 mm 301.0 W/m2
08:25 15.3 °C 7.1 °C 1011.4 hPa SW 13 km/h 14.5 km/h 58% 0 mm 353.0 W/m2
08:34 15.8 °C 7 °C 1011.4 hPa SW 14.3 km/h 17.7 km/h 56% 0 mm 410.0 W/m2
08:44 16.2 °C 7.1 °C 1011.4 hPa SW 11.1 km/h 17.7 km/h 55% 0 mm 445.0 W/m2
08:59 16.8 °C 6.9 °C 1011.1 hPa SW 11.1 km/h 17.7 km/h 52% 0 mm 496.0 W/m2
09:22 17.3 °C 7.1 °C 1011.1 hPa SW 14.3 km/h 19.3 km/h 51% 0 mm 547.0 W/m2
09:29 17.9 °C 7 °C 1011.1 hPa SW 14.3 km/h 19.3 km/h 49% 0 mm 596.0 W/m2
09:49 18.6 °C 7.1 °C 1011.1 hPa SW 11.1 km/h 17.7 km/h 47% 0 mm 642.0 W/m2
09:58 19.2 °C 7.3 °C 1010.7 hPa SW 9.7 km/h 12.9 km/h 46% 0 mm 673.0 W/m2
10:07 19.6 °C 7 °C 1010.7 hPa SW 14.3 km/h 19.3 km/h 44% 0 mm 705.0 W/m2
10:14 19.7 °C 7.1 °C 1010.7 hPa SW 13 km/h 17.7 km/h 44% 0 mm 715.0 W/m2
10:19 20.1 °C 7.1 °C 1010.7 hPa SW 11.1 km/h 17.7 km/h 43% 0 mm 744.0 W/m2
10:41 21 °C 7.2 °C 1010.7 hPa SSW 13 km/h 14.5 km/h 41% 0 mm 784.0 W/m2
10:50 21.7 °C 7.5 °C 1010.7 hPa SSW 16.3 km/h 17.7 km/h 40% 0 mm 817.0 W/m2
11:05 22.2 °C 7.2 °C 1010.7 hPa SW 11.1 km/h 24.1 km/h 38% 0 mm 853.0 W/m2
11:26 23.2 °C 7.3 °C 1010.4 hPa SW 13 km/h 17.7 km/h 36% 0 mm 881.0 W/m2
11:41 23.9 °C 7.5 °C 1010.4 hPa SW 14.3 km/h 17.7 km/h 35% 0 mm 904.0 W/m2
11:56 24.3 °C 7.4 °C 1010 hPa SW 13 km/h 19.3 km/h 34% 0 mm 926.0 W/m2
12:07 24.8 °C 7.4 °C 1010 hPa SW 11.1 km/h 12.9 km/h 33% 0 mm 940.0 W/m2
12:23 25.5 °C 7.1 °C 1010 hPa SW 13 km/h 14.5 km/h 31% 0 mm 954.0 W/m2
12:38 26.2 °C 7.3 °C 1009.7 hPa SW 7.9 km/h 16.1 km/h 30% 0 mm 965.0 W/m2
12:46 26.9 °C 6.8 °C 1009.7 hPa WSW 7.9 km/h 16.1 km/h 28% 0 mm 970.0 W/m2
13:01 27.2 °C 7.1 °C 1009.4 hPa SW 7.9 km/h 20.9 km/h 28% 0 mm 972.0 W/m2
13:17 27.9 °C 7.2 °C 1009 hPa SW 11.1 km/h 17.7 km/h 27% 0 mm 967.0 W/m2
13:32 28.4 °C 7 °C 1009 hPa Calm   9.7 km/h 26% 0 mm 962.0 W/m2
13:47 29.4 °C 6.7 °C 1008.7 hPa WSW 6.4 km/h 12.9 km/h 24% 0 mm 954.0 W/m2
13:57 29.5 °C 6.8 °C 1008.7 hPa SSW 13 km/h 14.5 km/h 24% 0 mm 944.0 W/m2
14:13 29.7 °C 7 °C 1008.4 hPa SSW 9.7 km/h 17.7 km/h 24% 0 mm 932.0 W/m2
14:22 30.1 °C 6.7 °C 1008.4 hPa SSW 9.7 km/h 16.1 km/h 23% 0 mm 911.0 W/m2
14:32 30.4 °C 6.9 °C 1008.4 hPa SW 22.7 km/h 22.7 km/h 23% 0 mm 896.0 W/m2
14:47 30.8 °C 6.6 °C 1008 hPa SW 16.3 km/h 20.9 km/h 22% 0 mm 868.0 W/m2
15:03 30.8 °C 6.6 °C 1008 hPa SSW 16.3 km/h 22.5 km/h 22% 0 mm 853.0 W/m2
15:08 31.2 °C 6.3 °C 1008 hPa SSW 14.3 km/h 27.4 km/h 21% 0 mm 831.0 W/m2
15:18 31.4 °C 6.4 °C 1007.7 hPa SW 16.3 km/h 27.4 km/h 21% 0 mm 807.0 W/m2
15:26 31.3 °C 6.4 °C 1007.7 hPa SW 14.3 km/h 25.7 km/h 21% 0 mm 795.0 W/m2
Canyon Roadhouse, Fishriver Canyon, Namibia
Compliments of Weather Underground - 1.75 mb